createdAt,value
2023-03-21T00:00:42.162Z,70.79
2023-03-21T00:01:56.445Z,70.71
2023-03-21T00:02:59.539Z,70.79
2023-03-21T00:04:03.682Z,70.85
2023-03-21T00:05:15.526Z,70.92
2023-03-21T00:06:19.012Z,70.96
2023-03-21T00:07:21.872Z,71.03
2023-03-21T00:08:26.846Z,71.31
2023-03-21T00:09:29.719Z,71.43
2023-03-21T00:10:40.368Z,71.70
2023-03-21T00:11:55.997Z,71.27
2023-03-21T00:12:58.822Z,71.41
2023-03-21T00:14:02.547Z,71.43
2023-03-21T00:15:10.269Z,71.48
2023-03-21T00:16:20.319Z,71.48
2023-03-21T00:17:32.689Z,71.77
2023-03-21T00:18:36.864Z,71.58
2023-03-21T00:19:41.368Z,71.75
2023-03-21T00:20:47.465Z,71.53
2023-03-21T00:22:06.378Z,71.59
2023-03-21T00:23:10.765Z,71.77
2023-03-21T00:24:13.759Z,71.58
2023-03-21T00:25:16.840Z,71.76
2023-03-21T00:26:19.708Z,71.87
2023-03-21T00:27:44.840Z,71.67
2023-03-21T00:28:45.933Z,71.53
2023-03-21T00:29:49.984Z,71.56
2023-03-21T00:30:59.366Z,71.61
2023-03-21T00:32:02.203Z,71.50
2023-03-21T00:33:19.604Z,71.68
2023-03-21T00:34:36.466Z,71.75
2023-03-21T00:36:05.831Z,71.54
2023-03-21T00:37:13.238Z,71.52
2023-03-21T00:38:22.515Z,71.35
2023-03-21T00:39:26.192Z,71.52
2023-03-21T00:40:35.081Z,71.48
2023-03-21T00:41:43.347Z,71.33
2023-03-21T00:42:47.051Z,71.37
2023-03-21T00:43:50.154Z,71.27
2023-03-21T00:44:52.984Z,71.10
2023-03-21T00:45:58.332Z,71.14
2023-03-21T00:47:07.369Z,71.17
2023-03-21T00:48:11.388Z,71.32
2023-03-21T00:49:14.506Z,71.37
2023-03-21T00:50:18.176Z,71.29
2023-03-21T00:51:26.593Z,71.27
2023-03-21T00:52:40.160Z,71.28
2023-03-21T00:53:43.391Z,71.34
2023-03-21T00:54:46.420Z,71.34
2023-03-21T00:55:49.806Z,71.47
2023-03-21T00:56:53.173Z,71.35
2023-03-21T00:58:01.903Z,71.34
2023-03-21T00:59:05.426Z,71.36
2023-03-21T01:00:10.712Z,71.29
2023-03-21T01:01:13.868Z,71.31
2023-03-21T01:02:23.229Z,71.31
2023-03-21T01:03:26.731Z,71.37
2023-03-21T01:04:29.663Z,71.45
2023-03-21T01:05:54.339Z,71.48
2023-03-21T01:06:57.366Z,71.33
2023-03-21T01:08:01.829Z,71.39
2023-03-21T01:09:08.045Z,71.44
2023-03-21T01:10:12.460Z,71.54
2023-03-21T01:11:19.870Z,71.41
2023-03-21T01:12:22.740Z,71.40
2023-03-21T01:13:25.892Z,71.42
2023-03-21T01:14:29.265Z,71.46
2023-03-21T01:15:32.226Z,71.45
2023-03-21T01:16:36.128Z,71.60
2023-03-21T01:17:39.083Z,71.65
2023-03-21T01:18:42.385Z,71.50
2023-03-21T01:19:51.976Z,71.39
2023-03-21T01:20:58.073Z,71.37
2023-03-21T01:22:01.490Z,71.49
2023-03-21T01:23:04.977Z,71.26
2023-03-21T01:24:08.521Z,71.19
2023-03-21T01:25:22.041Z,71.15
2023-03-21T01:26:25.915Z,71.14
2023-03-21T01:27:28.931Z,71.13
2023-03-21T01:28:32.682Z,71.01
2023-03-21T01:29:35.578Z,71.00
2023-03-21T01:32:09.390Z,71.10
2023-03-21T01:33:14.376Z,71.14
2023-03-21T01:34:17.306Z,71.07
2023-03-21T01:35:20.424Z,71.06
2023-03-21T01:36:25.855Z,71.04
2023-03-21T01:37:33.947Z,71.05
2023-03-21T01:38:37.137Z,70.94
2023-03-21T01:39:40.457Z,70.82
2023-03-21T01:40:45.902Z,70.70
2023-03-21T01:41:58.053Z,70.77
2023-03-21T01:43:04.545Z,70.61
2023-03-21T01:44:07.802Z,70.62
2023-03-21T01:45:52.528Z,70.46
2023-03-21T01:47:10.902Z,70.52
2023-03-21T01:48:24.777Z,70.53
2023-03-21T01:49:38.793Z,70.54
2023-03-21T01:50:47.831Z,70.55
2023-03-21T01:52:14.002Z,70.54
2023-03-21T01:53:30.014Z,70.61
2023-03-21T01:54:38.201Z,70.65
2023-03-21T01:55:41.935Z,70.61
2023-03-21T01:56:57.763Z,70.58
2023-03-21T01:58:06.754Z,70.59
2023-03-21T01:59:28.457Z,70.66
2023-03-21T02:00:53.365Z,70.53
2023-03-21T02:02:07.484Z,70.49
2023-03-21T02:03:26.220Z,70.52
2023-03-21T02:04:50.885Z,70.73
2023-03-21T02:06:01.305Z,70.63
2023-03-21T02:07:14.590Z,70.54
2023-03-21T02:08:33.351Z,70.60
2023-03-21T02:09:47.337Z,70.59
2023-03-21T02:10:53.103Z,70.41
2023-03-21T02:12:11.132Z,70.50
2023-03-21T02:13:15.937Z,70.53
2023-03-21T02:14:28.946Z,70.44
2023-03-21T02:15:40.893Z,70.36
2023-03-21T02:17:04.503Z,70.22
2023-03-21T02:18:32.633Z,70.18
2023-03-21T02:19:53.364Z,70.25
2023-03-21T02:21:01.697Z,70.15
2023-03-21T02:22:25.906Z,70.24
2023-03-21T02:24:08.053Z,70.29
2023-03-21T02:25:45.581Z,70.22
2023-03-21T02:27:04.532Z,70.07
2023-03-21T02:28:26.020Z,70.00
2023-03-21T02:29:56.859Z,69.81
2023-03-21T02:31:19.866Z,69.65
2023-03-21T02:32:46.824Z,69.63
2023-03-21T02:34:02.218Z,69.58
2023-03-21T02:35:23.521Z,69.60
2023-03-21T02:36:38.213Z,69.56
2023-03-21T02:38:07.123Z,69.52
2023-03-21T02:39:15.821Z,69.43
2023-03-21T02:40:36.004Z,69.40
2023-03-21T02:41:52.162Z,69.45
2023-03-21T02:43:23.278Z,69.44
2023-03-21T02:44:35.665Z,69.33
2023-03-21T02:45:53.587Z,69.35
2023-03-21T02:47:07.090Z,69.39
2023-03-21T02:48:27.887Z,69.36
2023-03-21T02:49:51.592Z,69.30
2023-03-21T02:50:59.813Z,69.32
2023-03-21T02:52:15.652Z,69.24
2023-03-21T02:53:25.570Z,69.21
2023-03-21T02:54:46.934Z,69.24
2023-03-21T02:55:53.076Z,69.22
2023-03-21T02:56:59.357Z,69.21
2023-03-21T02:58:12.479Z,69.20
2023-03-21T02:59:22.691Z,69.19
2023-03-21T03:00:31.406Z,69.13
2023-03-21T03:01:34.581Z,69.08
2023-03-21T03:02:40.088Z,69.06
2023-03-21T03:03:44.070Z,69.05
2023-03-21T03:04:47.971Z,69.05
2023-03-21T03:05:55.877Z,68.76
2023-03-21T03:06:59.967Z,68.70
2023-03-21T03:08:35.766Z,68.74
2023-03-21T03:10:12.414Z,68.79
2023-03-21T03:11:23.651Z,68.84
2023-03-21T03:12:40.456Z,68.84
2023-03-21T03:14:21.194Z,68.81
2023-03-21T03:15:45.800Z,68.90
2023-03-21T03:17:24.250Z,68.94
2023-03-21T03:18:31.138Z,68.92
2023-03-21T03:19:49.713Z,68.93
2023-03-21T03:21:14.154Z,68.87
2023-03-21T03:22:29.320Z,68.77
2023-03-21T03:23:54.568Z,68.68
2023-03-21T03:25:19.866Z,68.71
2023-03-21T03:26:37.123Z,68.60
2023-03-21T03:27:44.416Z,68.51
2023-03-21T03:28:53.352Z,68.47
2023-03-21T03:30:00.872Z,68.46
2023-03-21T03:31:09.556Z,68.51
2023-03-21T03:32:44.856Z,68.51
2023-03-21T03:33:52.897Z,68.48
2023-03-21T03:34:57.595Z,68.42
2023-03-21T03:36:07.120Z,68.39
2023-03-21T03:37:16.992Z,68.39
2023-03-21T03:38:22.462Z,68.40
2023-03-21T03:39:35.928Z,68.45
2023-03-21T03:40:49.040Z,68.36
2023-03-21T03:42:28.043Z,68.44
2023-03-21T03:43:50.963Z,68.40
2023-03-21T03:44:55.287Z,68.49
2023-03-21T03:46:05.410Z,68.46
2023-03-21T03:47:31.694Z,68.34
2023-03-21T03:48:58.918Z,68.39
2023-03-21T03:50:04.840Z,68.37
2023-03-21T03:51:12.682Z,68.40
2023-03-21T03:52:59.816Z,68.44
2023-03-21T03:54:11.207Z,68.51
2023-03-21T03:55:17.692Z,68.49
2023-03-21T03:56:22.402Z,68.44
2023-03-21T03:57:27.242Z,68.40
2023-03-21T03:58:44.569Z,68.46
2023-03-21T03:59:49.806Z,68.42
2023-03-21T04:01:09.056Z,68.50
2023-03-21T04:02:13.235Z,68.45
2023-03-21T04:03:16.393Z,68.43
2023-03-21T04:04:22.891Z,68.36
2023-03-21T04:05:27.519Z,68.32
2023-03-21T04:06:30.486Z,68.34
2023-03-21T04:07:33.876Z,68.33
2023-03-21T04:08:37.751Z,68.29
2023-03-21T04:09:44.933Z,68.26
2023-03-21T04:10:51.776Z,68.19
2023-03-21T04:11:55.281Z,68.21
2023-03-21T04:12:58.178Z,68.24
2023-03-21T04:14:06.709Z,68.26
2023-03-21T04:15:11.289Z,68.25
2023-03-21T04:16:17.313Z,68.21
2023-03-21T04:17:20.144Z,68.26
2023-03-21T04:18:24.612Z,68.37
2023-03-21T04:19:27.495Z,68.33
2023-03-21T04:20:37.013Z,68.25
2023-03-21T04:21:40.511Z,68.27
2023-03-21T04:22:43.785Z,68.25
2023-03-21T04:23:47.015Z,68.26
2023-03-21T04:24:50.477Z,68.25
2023-03-21T04:25:56.926Z,68.27
2023-03-21T04:27:08.982Z,68.28
2023-03-21T04:28:16.977Z,68.25
2023-03-21T04:29:24.418Z,68.33
2023-03-21T04:31:01.228Z,68.42
2023-03-21T04:32:16.523Z,68.55
2023-03-21T04:33:25.860Z,68.55
2023-03-21T04:34:34.240Z,68.49
2023-03-21T04:35:38.981Z,68.52
2023-03-21T04:36:49.663Z,68.58
2023-03-21T04:37:52.715Z,68.61
2023-03-21T04:39:01.554Z,68.47
2023-03-21T04:40:07.484Z,68.51
2023-03-21T04:41:10.558Z,68.54
2023-03-21T04:42:14.665Z,68.52
2023-03-21T04:43:17.793Z,68.57
2023-03-21T04:44:21.014Z,68.63
2023-03-21T04:45:24.016Z,68.70
2023-03-21T04:46:26.921Z,68.72
2023-03-21T04:47:30.543Z,68.71
2023-03-21T04:48:33.496Z,68.77
2023-03-21T04:49:36.931Z,68.81
2023-03-21T04:50:39.759Z,68.94
2023-03-21T04:51:44.088Z,68.81
2023-03-21T04:52:48.793Z,68.84
2023-03-21T04:53:52.640Z,68.92
2023-03-21T04:54:56.231Z,68.96
2023-03-21T04:55:59.191Z,68.92
2023-03-21T04:57:02.075Z,68.97
2023-03-21T04:58:04.980Z,68.83
2023-03-21T04:59:12.288Z,68.77
2023-03-21T05:00:15.648Z,68.89
2023-03-21T05:01:20.927Z,68.82
2023-03-21T05:02:24.042Z,68.75
2023-03-21T05:03:28.746Z,68.50
2023-03-21T05:04:31.660Z,68.43
2023-03-21T05:05:37.277Z,68.38
2023-03-21T05:06:42.659Z,68.34
2023-03-21T05:07:45.875Z,68.21
2023-03-21T05:08:48.750Z,68.16
2023-03-21T05:09:51.909Z,68.10
2023-03-21T05:10:54.809Z,68.06
2023-03-21T05:12:03.890Z,68.09
2023-03-21T05:13:07.628Z,68.09
2023-03-21T05:14:14.097Z,68.09
2023-03-21T05:15:17.085Z,68.13
2023-03-21T05:16:22.405Z,68.05
2023-03-21T05:17:28.476Z,67.94
2023-03-21T05:18:34.886Z,67.87
2023-03-21T05:19:42.770Z,67.87
2023-03-21T05:20:47.279Z,67.49
2023-03-21T05:21:50.532Z,67.57
2023-03-21T05:22:57.457Z,67.57
2023-03-21T05:24:03.719Z,67.51
2023-03-21T05:25:11.825Z,67.49
2023-03-21T05:26:33.465Z,67.61
2023-03-21T05:27:54.026Z,67.60
2023-03-21T05:28:59.674Z,67.45
2023-03-21T05:30:09.565Z,67.50
2023-03-21T05:31:15.967Z,67.51
2023-03-21T05:32:19.232Z,67.54
2023-03-21T05:33:22.277Z,67.50
2023-03-21T05:34:27.301Z,67.35
2023-03-21T05:35:31.001Z,67.37
2023-03-21T05:36:36.270Z,67.15
2023-03-21T05:37:40.867Z,67.13
2023-03-21T05:38:46.213Z,67.18
2023-03-21T05:39:50.015Z,67.26
2023-03-21T05:40:58.574Z,67.32
2023-03-21T05:42:01.521Z,67.37
2023-03-21T05:43:04.716Z,67.38
2023-03-21T05:44:07.640Z,67.32
2023-03-21T05:45:11.659Z,67.26
2023-03-21T05:46:14.826Z,67.32
2023-03-21T05:47:18.806Z,67.24
2023-03-21T05:48:23.080Z,67.16
2023-03-21T05:49:49.976Z,67.25
2023-03-21T05:50:54.457Z,67.20
2023-03-21T05:51:59.674Z,67.26
2023-03-21T05:53:02.636Z,67.22
2023-03-21T05:54:06.563Z,67.23
2023-03-21T05:55:10.342Z,67.15
2023-03-21T05:56:13.467Z,66.89
2023-03-21T05:57:22.241Z,66.89
2023-03-21T05:58:45.424Z,66.80
2023-03-21T05:59:48.658Z,66.66
2023-03-21T06:00:53.087Z,66.63
2023-03-21T06:02:01.222Z,66.41
2023-03-21T06:03:04.559Z,66.42
2023-03-21T06:04:23.599Z,66.11
2023-03-21T06:05:26.702Z,66.02
2023-03-21T06:06:30.253Z,65.94
2023-03-21T06:07:37.178Z,66.00
2023-03-21T06:08:40.673Z,66.03
2023-03-21T06:09:43.541Z,66.02
2023-03-21T06:10:46.578Z,65.96
2023-03-21T06:11:53.106Z,65.72
2023-03-21T06:13:16.037Z,65.70
2023-03-21T06:14:20.576Z,65.52
2023-03-21T06:15:37.456Z,65.62
2023-03-21T06:16:49.194Z,65.18
2023-03-21T06:17:52.356Z,65.20
2023-03-21T06:18:56.218Z,65.28
2023-03-21T06:20:12.167Z,65.13
2023-03-21T06:21:24.203Z,65.04
2023-03-21T06:22:28.570Z,65.10
2023-03-21T06:23:32.575Z,64.85
2023-03-21T06:24:35.825Z,64.70
2023-03-21T06:25:38.949Z,64.96
2023-03-21T06:26:42.963Z,65.06
2023-03-21T06:27:46.165Z,65.07
2023-03-21T06:28:50.454Z,65.11
2023-03-21T06:29:53.488Z,64.95
2023-03-21T06:30:56.919Z,65.10
2023-03-21T06:32:01.903Z,65.00
2023-03-21T06:33:04.963Z,64.97
2023-03-21T06:34:08.017Z,64.78
2023-03-21T06:35:10.869Z,64.99
2023-03-21T06:36:14.144Z,65.17
2023-03-21T06:37:19.430Z,65.29
2023-03-21T06:38:23.159Z,65.27
2023-03-21T06:39:26.430Z,65.23
2023-03-21T06:40:29.297Z,65.33
2023-03-21T06:41:32.184Z,65.32
2023-03-21T06:42:38.434Z,65.37
2023-03-21T06:43:48.493Z,64.93
2023-03-21T06:44:51.643Z,65.03
2023-03-21T06:45:54.476Z,64.72
2023-03-21T06:46:57.411Z,64.53
2023-03-21T06:48:00.355Z,64.46
2023-03-21T06:49:08.946Z,64.18
2023-03-21T06:50:12.115Z,64.28
2023-03-21T06:51:17.676Z,64.35
2023-03-21T06:52:34.794Z,64.31
2023-03-21T06:53:38.270Z,64.14
2023-03-21T06:55:01.450Z,63.87
2023-03-21T06:56:04.620Z,64.29
2023-03-21T06:57:07.748Z,63.99
2023-03-21T06:58:11.202Z,63.72
2023-03-21T06:59:14.154Z,63.53
2023-03-21T07:00:26.911Z,63.86
2023-03-21T07:01:30.755Z,63.91
2023-03-21T07:02:39.852Z,64.13
2023-03-21T07:03:49.193Z,63.93
2023-03-21T07:04:53.833Z,63.69
2023-03-21T07:05:59.130Z,63.84
2023-03-21T07:07:02.186Z,63.66
2023-03-21T07:08:06.239Z,63.58
2023-03-21T07:09:09.430Z,63.26
2023-03-21T07:10:13.719Z,63.57
2023-03-21T07:11:22.434Z,63.80
2023-03-21T07:12:25.752Z,63.98
2023-03-21T07:13:52.341Z,64.02
2023-03-21T07:14:55.424Z,64.02
2023-03-21T07:15:59.691Z,63.84
2023-03-21T07:17:02.612Z,63.38
2023-03-21T07:18:07.066Z,63.53
2023-03-21T07:19:09.997Z,63.73
2023-03-21T07:20:13.353Z,63.69
2023-03-21T07:21:16.639Z,63.53
2023-03-21T07:22:20.516Z,63.62
2023-03-21T07:23:25.777Z,63.72
2023-03-21T07:24:28.852Z,63.65
2023-03-21T07:25:31.977Z,63.74
2023-03-21T07:26:35.323Z,63.72
2023-03-21T07:27:41.054Z,63.51
2023-03-21T07:28:45.614Z,63.29
2023-03-21T07:29:50.495Z,63.04
2023-03-21T07:31:02.681Z,62.79
2023-03-21T07:32:05.587Z,62.68
2023-03-21T07:33:08.884Z,62.92
2023-03-21T07:34:15.985Z,62.86
2023-03-21T07:35:19.233Z,62.95
2023-03-21T07:36:22.268Z,63.02
2023-03-21T07:37:25.452Z,63.06
2023-03-21T07:38:30.916Z,62.98
2023-03-21T07:39:35.014Z,62.85
2023-03-21T07:40:38.656Z,63.06
2023-03-21T07:41:41.936Z,63.22
2023-03-21T07:42:58.358Z,63.11
2023-03-21T07:45:11.292Z,63.19
2023-03-21T07:46:14.385Z,63.30
2023-03-21T07:47:17.237Z,63.43
2023-03-21T07:48:23.667Z,63.43
2023-03-21T07:49:26.745Z,63.43
2023-03-21T07:50:29.885Z,63.44
2023-03-21T07:51:35.330Z,63.17
2023-03-21T07:52:38.627Z,63.29
2023-03-21T07:53:42.022Z,63.11
2023-03-21T07:54:45.132Z,63.12
2023-03-21T07:55:52.733Z,62.87
2023-03-21T07:56:57.155Z,63.06
2023-03-21T07:58:00.219Z,63.03
2023-03-21T07:59:03.119Z,62.89
2023-03-21T08:00:07.289Z,62.96
2023-03-21T08:01:15.745Z,63.12
2023-03-21T08:02:19.048Z,62.80
2023-03-21T08:03:24.043Z,62.94
2023-03-21T08:04:27.983Z,63.08
2023-03-21T08:05:35.681Z,63.16
2023-03-21T08:06:38.745Z,63.29
2023-03-21T08:07:41.602Z,63.28
2023-03-21T08:08:44.487Z,63.20
2023-03-21T08:09:47.515Z,63.18
2023-03-21T08:10:50.382Z,63.23
2023-03-21T08:11:53.440Z,63.29
2023-03-21T08:12:56.861Z,63.37
2023-03-21T08:14:00.883Z,63.15
2023-03-21T08:15:03.994Z,63.07
2023-03-21T08:16:08.405Z,62.95
2023-03-21T08:17:11.278Z,62.85
2023-03-21T08:18:14.193Z,62.67
2023-03-21T08:19:20.643Z,62.43
2023-03-21T08:20:23.651Z,62.40
2023-03-21T08:21:27.726Z,62.18
2023-03-21T08:22:30.728Z,61.91
2023-03-21T08:23:33.592Z,61.85
2023-03-21T08:24:36.460Z,61.74
2023-03-21T08:25:39.739Z,61.58
2023-03-21T08:26:44.575Z,61.51
2023-03-21T08:27:48.357Z,61.44
2023-03-21T08:28:51.518Z,61.31
2023-03-21T08:29:54.510Z,61.20
2023-03-21T08:30:57.541Z,61.03
2023-03-21T08:32:00.693Z,61.17
2023-03-21T08:33:04.499Z,61.25
2023-03-21T08:34:07.994Z,61.24
2023-03-21T08:35:13.676Z,61.43
2023-03-21T08:36:16.691Z,61.41
2023-03-21T08:37:20.052Z,61.20
2023-03-21T08:38:23.043Z,61.05
2023-03-21T08:39:26.107Z,60.93
2023-03-21T08:40:29.514Z,60.94
2023-03-21T08:41:33.841Z,61.00
2023-03-21T08:42:38.024Z,61.02
2023-03-21T08:43:41.236Z,60.83
2023-03-21T08:44:44.510Z,60.99
2023-03-21T08:45:47.563Z,61.01
2023-03-21T08:46:50.486Z,60.84
2023-03-21T08:47:53.644Z,60.53
2023-03-21T08:48:56.841Z,60.41
2023-03-21T08:50:00.364Z,60.30
2023-03-21T08:51:03.220Z,60.12
2023-03-21T08:52:06.378Z,60.12
2023-03-21T08:53:09.523Z,60.30
2023-03-21T08:54:20.919Z,59.90
2023-03-21T08:55:24.271Z,59.91
2023-03-21T08:56:27.113Z,60.02
2023-03-21T08:57:30.556Z,60.14
2023-03-21T08:58:33.754Z,60.23
2023-03-21T08:59:37.354Z,60.21
2023-03-21T09:00:40.561Z,60.26
2023-03-21T09:01:43.665Z,60.18
2023-03-21T09:02:49.299Z,59.92
2023-03-21T09:03:52.270Z,59.82
2023-03-21T09:04:59.187Z,59.94
2023-03-21T09:06:03.147Z,59.79
2023-03-21T09:07:06.497Z,59.77
2023-03-21T09:08:09.449Z,59.71
2023-03-21T09:09:12.992Z,60.01
2023-03-21T09:10:21.915Z,60.23
2023-03-21T09:11:26.025Z,60.31
2023-03-21T09:12:29.037Z,60.29
2023-03-21T09:13:31.802Z,60.20
2023-03-21T09:14:35.454Z,60.03
2023-03-21T09:15:39.109Z,59.38
2023-03-21T09:16:42.285Z,58.90
2023-03-21T09:17:50.313Z,59.35
2023-03-21T09:18:55.765Z,59.88
2023-03-21T09:20:00.678Z,60.39
2023-03-21T09:21:12.779Z,60.88
2023-03-21T09:22:17.329Z,60.99
2023-03-21T09:23:20.344Z,61.91
2023-03-21T09:24:23.259Z,62.09
2023-03-21T09:25:32.531Z,62.09
2023-03-21T09:26:35.627Z,62.39
2023-03-21T09:27:38.722Z,62.10
2023-03-21T09:28:42.891Z,61.98
2023-03-21T09:29:46.117Z,61.99
2023-03-21T09:30:49.519Z,61.77
2023-03-21T09:31:54.018Z,61.26
2023-03-21T09:32:57.049Z,61.07
2023-03-21T09:34:00.416Z,60.70
2023-03-21T09:35:06.062Z,60.38
2023-03-21T09:36:14.455Z,59.78
2023-03-21T09:37:17.662Z,59.66
2023-03-21T09:38:20.836Z,59.62
2023-03-21T09:39:24.220Z,59.29
2023-03-21T09:40:52.780Z,58.43
2023-03-21T09:42:15.347Z,58.99
2023-03-21T09:43:37.422Z,59.12
2023-03-21T09:44:54.251Z,58.66
2023-03-21T09:46:09.191Z,59.66
2023-03-21T09:47:21.805Z,60.38
2023-03-21T09:48:39.591Z,60.93
2023-03-21T09:50:12.990Z,61.08
2023-03-21T09:51:22.087Z,61.27
2023-03-21T09:52:37.890Z,60.64
2023-03-21T09:53:43.303Z,61.21
2023-03-21T09:54:46.204Z,61.71
2023-03-21T09:57:06.486Z,61.80
2023-03-21T10:00:25.844Z,61.19
2023-03-21T10:01:33.190Z,61.10
2023-03-21T10:02:39.371Z,61.39
2023-03-21T10:03:44.177Z,61.49
2023-03-21T10:04:47.301Z,61.35
2023-03-21T10:05:52.850Z,62.06
2023-03-21T10:07:02.613Z,62.00
2023-03-21T10:08:17.530Z,62.31
2023-03-21T10:09:24.418Z,62.01
2023-03-21T10:10:32.421Z,61.65
2023-03-21T10:11:50.437Z,62.35
2023-03-21T10:12:55.827Z,62.55
2023-03-21T10:14:04.952Z,62.39
2023-03-21T10:15:14.643Z,61.93
2023-03-21T10:16:32.426Z,61.50
2023-03-21T10:17:43.183Z,61.55
2023-03-21T10:18:46.882Z,60.98
2023-03-21T10:19:57.239Z,60.50
2023-03-21T10:21:02.024Z,60.59
2023-03-21T10:22:04.900Z,60.21
2023-03-21T10:23:16.701Z,59.93
2023-03-21T10:24:26.221Z,59.78
2023-03-21T10:25:31.870Z,60.17
2023-03-21T10:26:35.273Z,60.04
2023-03-21T10:27:38.185Z,59.88
2023-03-21T10:28:52.723Z,59.82
2023-03-21T10:29:57.582Z,59.63
2023-03-21T10:31:04.559Z,59.56
2023-03-21T10:32:11.987Z,59.21
2023-03-21T10:33:20.573Z,59.40
2023-03-21T10:34:42.605Z,59.37
2023-03-21T10:35:52.349Z,59.69
2023-03-21T10:36:55.389Z,60.47
2023-03-21T10:37:58.635Z,60.53
2023-03-21T10:39:02.033Z,59.61
2023-03-21T10:40:07.985Z,60.47
2023-03-21T10:41:13.863Z,61.21
2023-03-21T10:42:25.307Z,61.08
2023-03-21T10:43:28.104Z,60.81
2023-03-21T10:44:34.862Z,61.31
2023-03-21T10:45:38.614Z,60.44
2023-03-21T10:47:19.668Z,60.84
2023-03-21T10:48:24.655Z,61.68
2023-03-21T10:49:35.879Z,61.54
2023-03-21T10:50:47.715Z,61.59
2023-03-21T10:51:55.701Z,61.88
2023-03-21T10:53:00.929Z,61.66
2023-03-21T10:54:12.111Z,61.93
2023-03-21T10:55:28.991Z,61.56
2023-03-21T10:56:38.430Z,60.71
2023-03-21T10:57:41.346Z,61.16
2023-03-21T10:58:46.953Z,61.73
2023-03-21T10:59:59.933Z,61.46
2023-03-21T11:01:10.137Z,61.24
2023-03-21T11:02:40.940Z,61.04
2023-03-21T11:03:47.015Z,60.60
2023-03-21T11:04:50.438Z,61.26
2023-03-21T11:05:57.401Z,61.12
2023-03-21T11:07:09.221Z,60.51
2023-03-21T11:08:18.079Z,60.48
2023-03-21T11:09:25.354Z,60.55
2023-03-21T11:10:48.321Z,60.70
2023-03-21T11:12:03.739Z,61.00
2023-03-21T11:13:20.437Z,60.66
2023-03-21T11:14:38.622Z,61.36
2023-03-21T11:15:54.209Z,61.12
2023-03-21T11:16:57.068Z,60.40
2023-03-21T11:18:13.073Z,61.06
2023-03-21T11:19:27.692Z,60.97
2023-03-21T11:20:31.757Z,60.86
2023-03-21T11:21:38.628Z,61.05
2023-03-21T11:22:44.971Z,60.98
2023-03-21T11:23:52.781Z,61.30
2023-03-21T11:25:01.867Z,61.45
2023-03-21T11:26:10.433Z,61.28
2023-03-21T11:27:13.375Z,61.39
2023-03-21T11:28:19.815Z,61.72
2023-03-21T11:29:39.014Z,61.91
2023-03-21T11:30:58.314Z,61.87
2023-03-21T11:32:10.526Z,61.57
2023-03-21T11:33:13.397Z,61.92
2023-03-21T11:34:31.013Z,62.20
2023-03-21T11:35:37.455Z,62.42
2023-03-21T11:36:40.896Z,62.33
2023-03-21T11:37:47.059Z,61.94
2023-03-21T11:38:52.925Z,61.66
2023-03-21T11:40:05.567Z,61.24
2023-03-21T11:41:08.909Z,60.30
2023-03-21T11:42:27.224Z,60.10
2023-03-21T11:43:39.144Z,60.39
2023-03-21T11:44:44.435Z,60.11
2023-03-21T11:46:01.431Z,59.66
2023-03-21T11:47:04.577Z,59.84
2023-03-21T11:48:16.473Z,59.40
2023-03-21T11:49:21.175Z,59.28
2023-03-21T11:50:38.477Z,58.70
2023-03-21T11:51:50.847Z,58.56
2023-03-21T11:53:12.598Z,58.58
2023-03-21T11:54:53.431Z,58.20
2023-03-21T11:56:02.267Z,57.20
2023-03-21T11:57:46.455Z,58.49
2023-03-21T11:58:55.955Z,57.43
2023-03-21T12:00:18.255Z,58.15
2023-03-21T12:01:36.589Z,57.61
2023-03-21T12:03:20.244Z,58.14
2023-03-21T12:04:49.758Z,58.78
2023-03-21T12:05:56.581Z,58.94
2023-03-21T12:07:18.362Z,59.06
2023-03-21T12:08:43.233Z,58.35
2023-03-21T12:10:08.380Z,58.61
2023-03-21T12:11:20.650Z,57.70
2023-03-21T12:12:59.016Z,57.78
2023-03-21T12:14:16.005Z,59.05
2023-03-21T12:15:37.539Z,58.74
2023-03-21T12:17:02.392Z,57.92
2023-03-21T12:18:24.276Z,58.01
2023-03-21T12:19:33.253Z,57.15
2023-03-21T12:20:45.277Z,56.72
2023-03-21T12:21:48.096Z,56.24
2023-03-21T12:23:17.984Z,55.30
2023-03-21T12:24:24.841Z,54.96
2023-03-21T12:25:39.918Z,54.70
2023-03-21T12:27:16.549Z,54.08
2023-03-21T12:28:38.513Z,54.57
2023-03-21T12:29:59.513Z,53.58
2023-03-21T12:31:08.331Z,53.28
2023-03-21T12:32:39.047Z,52.38
2023-03-21T12:34:12.433Z,50.66
2023-03-21T12:35:34.512Z,51.01
2023-03-21T12:36:50.144Z,49.83
2023-03-21T12:38:20.676Z,50.28
2023-03-21T12:39:33.432Z,49.69
2023-03-21T12:41:01.932Z,48.45
2023-03-21T12:42:13.909Z,49.53
2023-03-21T12:43:21.058Z,49.09
2023-03-21T12:44:29.175Z,48.19
2023-03-21T12:45:46.631Z,47.71
2023-03-21T12:47:01.519Z,47.22
2023-03-21T12:48:13.714Z,46.68
2023-03-21T12:49:23.428Z,46.05
2023-03-21T12:50:29.872Z,46.60
2023-03-21T12:51:43.044Z,46.07
2023-03-21T12:52:52.884Z,46.30
2023-03-21T12:53:55.775Z,46.78
2023-03-21T12:55:19.604Z,46.85
2023-03-21T12:56:49.791Z,47.01
2023-03-21T12:58:06.834Z,46.92
2023-03-21T12:59:28.363Z,47.47
2023-03-21T13:00:40.909Z,48.31
2023-03-21T13:01:48.201Z,47.83
2023-03-21T13:02:58.587Z,48.76
2023-03-21T13:04:24.666Z,49.32
2023-03-21T13:05:39.187Z,49.68
2023-03-21T13:06:45.580Z,50.03
2023-03-21T13:07:58.134Z,49.41
2023-03-21T13:09:10.533Z,49.38
2023-03-21T13:10:17.524Z,48.45
2023-03-21T13:11:24.488Z,48.15
2023-03-21T13:12:49.407Z,47.38
2023-03-21T13:14:20.865Z,48.29
2023-03-21T13:15:38.481Z,48.28
2023-03-21T13:16:47.819Z,47.84
2023-03-21T13:18:01.619Z,47.82
2023-03-21T13:19:19.930Z,48.13
2023-03-21T13:20:35.032Z,48.37
2023-03-21T13:21:46.349Z,48.21
2023-03-21T13:22:49.260Z,48.31
2023-03-21T13:24:28.700Z,48.26
2023-03-21T13:25:33.672Z,47.59
2023-03-21T13:26:42.247Z,47.90
2023-03-21T13:27:55.037Z,47.39
2023-03-21T13:28:59.039Z,46.87
2023-03-21T13:30:26.505Z,46.56
2023-03-21T13:31:33.866Z,45.80
2023-03-21T13:32:48.607Z,45.24
2023-03-21T13:33:55.079Z,45.02
2023-03-21T13:35:14.648Z,45.55
2023-03-21T13:36:25.868Z,45.37
2023-03-21T13:37:33.781Z,45.74
2023-03-21T13:38:40.454Z,46.88
2023-03-21T13:39:46.592Z,46.91
2023-03-21T13:41:11.378Z,44.14
2023-03-21T13:42:29.369Z,44.64
2023-03-21T13:43:53.032Z,44.26
2023-03-21T13:45:00.401Z,42.81
2023-03-21T13:46:10.283Z,44.25
2023-03-21T13:47:39.917Z,43.16
2023-03-21T13:49:00.434Z,43.17
2023-03-21T13:50:24.418Z,42.04
2023-03-21T13:51:43.862Z,42.21
2023-03-21T13:53:11.685Z,41.29
2023-03-21T13:54:14.955Z,42.03
2023-03-21T13:55:20.545Z,39.73
2023-03-21T13:56:24.617Z,38.94
2023-03-21T13:57:27.439Z,38.98
2023-03-21T13:58:33.682Z,38.54
2023-03-21T13:59:42.940Z,37.59
2023-03-21T14:01:11.275Z,37.95
2023-03-21T14:02:30.815Z,38.06
2023-03-21T14:03:35.659Z,37.59
2023-03-21T14:04:42.644Z,35.79
2023-03-21T14:05:57.034Z,35.81
2023-03-21T14:07:08.058Z,35.51
2023-03-21T14:08:27.738Z,36.12
2023-03-21T14:09:41.799Z,35.84
2023-03-21T14:10:53.928Z,34.28
2023-03-21T14:12:03.812Z,35.20
2023-03-21T14:13:16.617Z,34.78
2023-03-21T14:14:24.381Z,34.51
2023-03-21T14:15:40.943Z,34.72
2023-03-21T14:16:46.618Z,33.94
2023-03-21T14:17:59.014Z,32.89
2023-03-21T14:19:05.382Z,33.93
2023-03-21T14:20:21.291Z,34.06
2023-03-21T14:21:31.275Z,32.53
2023-03-21T14:22:36.273Z,33.39
2023-03-21T14:23:39.176Z,31.77
2023-03-21T14:24:47.939Z,33.22
2023-03-21T14:25:52.021Z,33.10
2023-03-21T14:26:56.263Z,32.92
2023-03-21T14:28:03.962Z,33.13
2023-03-21T14:29:25.265Z,32.31
2023-03-21T14:30:41.333Z,33.55
2023-03-21T14:31:47.060Z,33.29
2023-03-21T14:32:53.651Z,34.60
2023-03-21T14:34:01.227Z,34.94
2023-03-21T14:35:05.005Z,35.65
2023-03-21T14:36:15.817Z,35.95
2023-03-21T14:37:30.622Z,36.48
2023-03-21T14:38:36.813Z,37.70
2023-03-21T14:39:39.754Z,38.00
2023-03-21T14:40:48.239Z,38.61
2023-03-21T14:41:57.363Z,39.63
2023-03-21T14:43:05.833Z,40.14
2023-03-21T14:44:16.965Z,40.73
2023-03-21T14:45:24.946Z,41.53
2023-03-21T14:46:28.103Z,41.95
2023-03-21T14:47:32.830Z,42.77
2023-03-21T14:48:38.445Z,43.87
2023-03-21T14:49:41.539Z,44.09
2023-03-21T14:50:50.470Z,44.50
2023-03-21T14:51:56.228Z,44.89
2023-03-21T14:53:00.312Z,45.23
2023-03-21T14:54:03.221Z,45.91
2023-03-21T14:55:15.621Z,46.46
2023-03-21T14:56:25.623Z,46.46
2023-03-21T14:57:30.992Z,46.55
2023-03-21T14:58:37.839Z,46.98
2023-03-21T14:59:42.166Z,47.48
2023-03-21T15:00:50.241Z,48.06